Latest Weather Observations for Wynyard

IDT60801

Issued at 10:31 am EDT Friday 15 November 2019 (issued every 10 minutes, with the page automatically refreshed every 10 minutes)

About weather observations | Map of weather stations | Latest weather observations for TAS | Other Formats
Station Details ID: 091107 Name: WYNYARD AIRPORT Lat: -41.00 Lon: 145.73 Height: 12.0 m
Data from the previous 72 hours. | See also: Recent months at Wynyard
Date/Time
EDT
Temp
°C
App
Temp
°C
Dew
Point
°C
Rel
Hum
%
Delta-T
°C
Wind Press
QNH
hPa
Press
MSL
hPa
Rain since
9am
mm
Dir  Spd
km/h
Gust
km/h
Spd
kts
Gust
kts
15/10:30am 14.9 5.5 4.3 49 4.9 W 43 59 23 32 1003.6 1003.6 0.0
15/10:24am 14.5 5.3 3.3 47 5.1 W 41 59 22 32 1003.5 1003.5 0.0
15/10:00am 12.7 3.9 3.4 53 4.2 WSW 39 57 21 31 1003.9 1003.9 0.0
15/09:38am 13.7 5.6 3.5 50 4.6 W 35 56 19 30 1003.8 1003.8 0.0
15/09:30am 13.6 4.6 4.7 55 4.1 WSW 41 57 22 31 1003.9 1003.9 0.0
15/09:00am 12.9 4.2 4.3 56 3.9 WSW 39 59 21 32 1003.7 1003.7 0.6
15/08:42am 12.6 4.0 4.6 58 3.7 WSW 39 57 21 31 1003.8 1003.8 0.6
15/08:30am 12.6 4.5 5.1 60 3.5 WSW 37 54 20 29 1003.7 1003.7 0.6
15/08:17am 12.6 5.2 6.6 67 2.9 WSW 35 54 19 29 1003.6 1003.6 0.6
15/08:00am 12.2 4.8 6.7 69 2.6 WSW 35 48 19 26 1003.3 1003.3 0.6
15/07:30am 11.6 3.9 6.9 73 2.2 W 37 50 20 27 1003.2 1003.2 0.6
15/07:00am 11.0 5.1 7.3 78 1.8 W 28 41 15 22 1003.0 1003.0 0.6
15/06:30am 10.3 3.9 7.0 80 1.6 W 30 43 16 23 1002.9 1002.9 0.6
15/06:00am 9.8 4.6 7.2 84 1.2 W 24 32 13 17 1003.0 1003.0 0.6
15/05:30am 10.0 4.0 7.1 82 1.4 W 28 37 15 20 1002.5 1002.5 0.6
15/05:00am 10.1 4.1 7.2 82 1.4 W 28 39 15 21 1002.6 1002.6 0.6
15/04:34am 10.4 3.6 7.5 82 1.4 W 33 50 18 27 1002.6 1002.6 0.6
15/04:32am 10.3 3.6 7.4 82 1.4 W 32 50 17 27 1002.5 1002.5 0.6
15/04:30am 10.4 4.5 7.5 82 1.4 W 28 44 15 24 1002.4 1002.4 0.6
15/04:29am 10.4 4.9 7.6 83 1.3 W 26 44 14 24 1002.4 1002.4 0.6
15/04:19am 10.7 5.9 8.8 88 0.9 W 24 35 13 19 1002.7 1002.7 0.6
15/04:00am 11.0 5.3 8.2 83 1.4 WNW 28 33 15 18 1002.5 1002.5 0.4
15/03:35am 10.8 6.7 8.7 87 1.0 WNW 20 28 11 15 1002.5 1002.5 0.4
15/03:30am 10.7 6.7 9.0 89 0.8 W 20 24 11 13 1002.6 1002.6 0.4
15/03:21am 10.7 6.3 9.1 90 0.8 W 22 32 12 17 1002.5 1002.5 0.4
15/03:03am 11.0 6.3 9.1 88 0.9 W 24 33 13 18 1002.6 1002.6 0.4
15/03:00am 11.0 6.7 9.3 89 0.9 W 22 33 12 18 1002.6 1002.6 0.4
15/02:31am 10.9 7.1 9.7 92 0.6 WNW 20 26 11 14 1002.8 1002.8 0.4
15/02:30am 10.9 6.7 9.7 92 0.6 WNW 22 26 12 14 1002.8 1002.8 0.4
15/02:00am 11.1 6.4 9.4 89 0.9 WNW 24 32 13 17 1002.9 1002.9 0.4
15/01:30am 11.5 5.8 8.5 82 1.5 W 28 41 15 22 1003.4 1003.4 0.4
15/01:00am 11.4 5.0 8.4 82 1.5 WNW 32 44 17 24 1003.6 1003.6 0.4
15/12:30am 11.5 5.9 8.9 84 1.3 W 28 37 15 20 1004.1 1004.1 0.4
15/12:00am 11.8 6.2 8.6 81 1.6 W 28 39 15 21 1004.0 1004.0 0.4
 
Date/Time
EDT
Temp
°C
App
Temp
°C
Dew
Point
°C
Rel
Hum
%
Delta-T
°C
Wind Press
QNH
hPa
Press
MSL
hPa
Rain since
9am
mm
Dir  Spd
km/h
Gust
km/h
Spd
kts
Gust
kts
14/11:30pm 11.9 5.5 8.7 81 1.6 W 32 44 17 24 1004.4 1004.4 0.4
14/11:00pm 12.1 5.1 8.4 78 1.8 W 35 50 19 27 1004.7 1004.7 0.4
14/10:30pm 12.1 5.5 8.4 78 1.8 W 33 48 18 26 1005.0 1005.0 0.4
14/10:00pm 12.1 5.7 8.4 78 1.8 W 32 46 17 25 1005.2 1005.2 0.4
14/09:30pm 11.8 5.8 8.6 81 1.6 W 30 41 16 22 1005.3 1005.3 0.4
14/09:00pm 11.5 4.6 8.7 83 1.4 W 35 50 19 27 1005.4 1005.4 0.4
14/08:52pm 11.7 5.3 8.7 82 1.5 W 32 50 17 27 1005.5 1005.5 0.4
14/08:30pm 12.2 6.4 8.1 76 2.0 W 28 39 15 21 1005.5 1005.5 0.4
14/08:00pm 12.2 5.6 7.9 75 2.1 W 32 48 17 26 1005.6 1005.6 0.4
14/07:30pm 12.2 5.6 7.9 75 2.1 W 32 46 17 25 1005.7 1005.7 0.4
14/07:07pm 12.0 5.6 8.5 79 1.7 W 32 56 17 30 1005.8 1005.8 0.4
14/07:00pm 11.9 6.1 9.3 84 1.3 W 30 39 16 21 1005.9 1005.9 0.4
14/06:30pm 12.9 6.6 8.8 76 2.1 W 32 41 17 22 1005.8 1005.8 0.4
14/06:08pm 13.4 6.5 8.9 74 2.3 W 35 54 19 29 1005.7 1005.7 0.4
14/06:00pm 13.3 5.9 8.4 72 2.5 WNW 37 46 20 25 1005.8 1005.8 0.4
14/05:31pm 13.6 7.2 9.3 75 2.2 W 33 52 18 28 1005.9 1005.9 0.4
14/05:30pm 13.6 6.8 9.1 74 2.3 W 35 52 19 28 1005.9 1005.9 0.4
14/05:04pm 14.1 7.2 8.9 71 2.6 WNW 35 54 19 29 1005.4 1005.4 0.4
14/05:00pm 14.4 6.9 9.4 72 2.6 WNW 39 54 21 29 1005.5 1005.5 0.4
14/04:34pm 14.6 8.4 9.4 71 2.7 W 32 54 17 29 1005.8 1005.8 0.4
14/04:30pm 13.9 7.5 9.5 75 2.3 W 33 46 18 25 1006.0 1006.0 0.4
14/04:00pm 14.8 7.9 9.0 68 3.0 W 35 46 19 25 1005.9 1005.9 0.4
14/03:33pm 14.5 6.8 8.5 67 3.0 W 39 57 21 31 1006.2 1006.2 0.4
14/03:30pm 14.8 6.7 8.5 66 3.2 W 41 57 22 31 1006.1 1006.1 0.4
14/03:02pm 14.9 7.7 7.5 61 3.7 W 35 54 19 29 1006.3 1006.3 0.4
14/03:00pm 15.0 8.2 7.8 62 3.6 W 33 48 18 26 1006.4 1006.4 0.4
14/02:32pm 15.2 7.4 8.2 63 3.5 W 39 65 21 35 1006.6 1006.6 0.4
14/02:30pm 15.9 9.2 9.6 66 3.3 W 35 50 19 27 1006.6 1006.6 0.4
14/02:08pm 15.3 7.1 8.3 63 3.5 W 41 59 22 32 1006.7 1006.7 0.4
14/02:00pm 16.1 7.5 8.8 62 3.7 W 44 59 24 32 1006.6 1006.6 0.4
14/01:33pm 16.5 8.5 9.0 61 3.9 WSW 41 59 22 32 1006.6 1006.6 0.4
14/01:30pm 16.5 8.0 8.7 60 4.0 WSW 43 59 23 32 1006.6 1006.6 0.4
14/01:08pm 14.8 6.1 7.6 62 3.6 W 43 63 23 34 1006.7 1006.7 0.4
14/01:00pm 15.2 7.4 8.4 64 3.4 W 39 56 21 30 1006.5 1006.5 0.4
14/12:30pm 15.9 7.3 8.9 63 3.6 W 44 63 24 34 1006.5 1006.5 0.4
14/12:08pm 15.5 7.6 7.8 60 3.8 W 39 59 21 32 1006.7 1006.7 0.4
14/12:00pm 16.2 8.9 10.1 67 3.2 W 39 54 21 29 1006.7 1006.7 0.4
14/11:31am 14.9 6.5 9.1 68 3.0 W 43 61 23 33 1006.8 1006.8 0.4
14/11:30am 15.2 7.0 9.8 70 2.8 W 43 57 23 31 1006.8 1006.8 0.4
14/11:00am 14.0 6.5 9.4 74 2.4 W 39 59 21 32 1006.7 1006.7 0.4
14/10:54am 14.3 6.9 9.9 75 2.3 W 39 59 21 32 1006.7 1006.7 0.4
14/10:30am 13.4 5.7 10.0 80 1.8 W 41 56 22 30 1006.8 1006.8 0.4
14/10:18am 12.7 4.8 9.3 80 1.7 WSW 41 57 22 31 1006.6 1006.6 0.4
14/10:11am 13.1 5.5 10.5 84 1.4 WSW 41 54 22 29 1006.6 1006.6 0.4
14/10:00am 13.6 6.4 11.8 89 1.0 W 41 59 22 32 1006.5 1006.5 0.4
14/09:51am 12.4 6.5 10.6 89 0.9 W 32 57 17 31 1006.5 1006.5 0.4
14/09:44am 12.9 7.1 11.5 91 0.7 W 33 44 18 24 1006.6 1006.6 0.2
14/09:32am 12.9 6.9 10.8 87 1.1 W 33 43 18 23 1006.5 1006.5 0.0
14/09:31am 13.0 7.2 10.7 86 1.2 W 32 43 17 23 1006.5 1006.5 0.0
14/09:30am 13.2 7.4 10.7 85 1.3 W 32 43 17 23 1006.4 1006.4 0.0
14/09:15am 13.8 8.8 10.8 82 1.6 W 28 37 15 20 1006.4 1006.4 0.0
14/09:06am 13.5 8.9 11.2 86 1.2 W 26 32 14 17 1006.4 1006.4 0.0
14/09:00am 13.1 8.5 11.2 88 1.0 W 26 33 14 18 1006.5 1006.5 0.2
14/08:39am 12.7 7.7 11.1 90 0.8 W 28 35 15 19 1006.6 1006.6 0.2
14/08:30am 12.8 7.0 10.7 87 1.1 W 32 41 17 22 1006.6 1006.6 0.2
14/08:00am 12.1 6.6 10.5 90 0.8 W 30 41 16 22 1006.5 1006.5 0.2
14/07:30am 11.7 6.4 9.9 89 0.9 W 28 39 15 21 1006.5 1006.5 0.2
14/07:22am 11.7 6.5 10.3 91 0.7 W 28 37 15 20 1006.4 1006.4 0.2
14/07:04am 11.4 5.8 10.1 92 0.7 W 30 43 16 23 1006.6 1006.6 0.2
14/07:00am 11.3 5.6 9.9 91 0.7 W 30 43 16 23 1006.6 1006.6 0.2
14/06:30am 11.0 6.4 9.8 92 0.6 W 24 33 13 18 1006.4 1006.4 0.2
14/06:08am 10.6 5.9 9.4 92 0.6 W 24 35 13 19 1006.2 1006.2 0.2
14/06:00am 10.6 6.4 9.7 94 0.5 W 22 32 12 17 1006.4 1006.4 0.2
14/05:35am 10.8 5.8 9.6 92 0.6 W 26 33 14 18 1006.3 1006.3 0.2
14/05:30am 10.8 5.8 9.4 91 0.7 W 26 33 14 18 1006.3 1006.3 0.2
14/05:15am 10.8 5.8 9.6 92 0.6 W 26 33 14 18 1006.2 1006.2 0.2
14/05:00am 10.8 6.3 10.0 95 0.4 WNW 24 33 13 18 1006.1 1006.1 0.2
14/04:52am 10.8 5.9 9.9 94 0.5 W 26 33 14 18 1006.4 1006.4 0.2
14/04:47am 10.8 6.3 9.9 94 0.5 W 24 30 13 16 1006.5 1006.5 0.2
14/04:30am 10.7 6.9 9.9 95 0.4 W 20 26 11 14 1006.4 1006.4 0.2
14/04:05am 10.9 6.0 9.8 93 0.6 WNW 26 33 14 18 1006.6 1006.6 0.2
14/04:00am 10.9 5.9 9.7 92 0.6 WNW 26 33 14 18 1006.6 1006.6 0.2
14/03:43am 10.8 6.5 9.4 91 0.7 WNW 22 32 12 17 1006.7 1006.7 0.2
14/03:40am 10.7 6.8 9.5 92 0.6 WNW 20 30 11 16 1006.8 1006.8 0.2
14/03:30am 10.5 6.6 9.4 93 0.5 WNW 20 24 11 13 1007.1 1007.1 0.2
14/03:20am 10.8 7.1 9.4 91 0.7 WNW 19 26 10 14 1007.2 1007.2 0.2
14/03:07am 11.0 7.0 8.9 87 1.0 WNW 20 28 11 15 1007.5 1007.5 0.2
14/03:00am 11.1 7.2 8.8 86 1.1 WNW 19 28 10 15 1007.4 1007.4 0.2
14/02:50am 10.9 7.4 8.7 86 1.1 W 17 28 9 15 1007.5 1007.5 0.2
14/02:30am 10.6 7.2 9.0 90 0.8 WNW 17 22 9 12 1007.7 1007.7 0.2
14/02:20am 10.7 7.0 9.3 91 0.7 NW 19 28 10 15 1007.7 1007.7 0.2
14/02:00am 10.8 8.0 8.7 87 1.0 NW 13 19 7 10 1008.0 1008.0 0.2
14/01:30am 10.7 7.2 8.8 88 0.9 NW 17 24 9 13 1008.3 1008.3 0.2
14/01:19am 10.5 6.6 8.6 88 0.9 WNW 19 24 10 13 1008.3 1008.3 0.2
14/01:00am 10.9 7.3 8.3 84 1.3 WNW 17 24 9 13 1008.3 1008.3 0.2
14/12:42am 10.9 7.6 8.0 82 1.4 WNW 15 24 8 13 1008.7 1008.7 0.2
14/12:30am 10.9 6.6 7.8 81 1.5 W 20 30 11 16 1008.7 1008.7 0.2
14/12:00am 11.0 5.9 7.5 79 1.7 W 24 33 13 18 1008.7 1008.7 0.2
 
Date/Time
EDT
Temp
°C
App
Temp
°C
Dew
Point
°C
Rel
Hum
%
Delta-T
°C
Wind Press
QNH
hPa
Press
MSL
hPa
Rain since
9am
mm
Dir  Spd
km/h
Gust
km/h
Spd
kts
Gust
kts
13/11:30pm 10.6 5.7 7.1 79 1.7 W 22 30 12 16 1008.8 1008.8 0.2
13/11:00pm 10.7 6.0 7.6 81 1.5 W 22 33 12 18 1008.8 1008.8 0.2
13/10:30pm 11.2 5.9 6.9 75 2.0 WSW 24 35 13 19 1008.9 1008.9 0.2
13/10:00pm 11.3 6.9 6.6 73 2.2 W 19 24 10 13 1009.1 1009.1 0.2
13/09:30pm 11.2 6.2 6.3 72 2.3 W 22 30 12 16 1008.7 1008.7 0.2
13/09:00pm 11.1 5.6 6.0 71 2.4 W 24 37 13 20 1008.1 1008.1 0.2
13/08:30pm 11.3 5.5 6.2 71 2.4 WSW 26 37 14 20 1007.6 1007.6 0.2
13/08:09pm 11.6 4.7 6.3 70 2.5 WSW 32 50 17 27 1007.3 1007.3 0.2
13/08:00pm 11.5 4.5 6.2 70 2.5 WSW 32 44 17 24 1007.1 1007.1 0.2
13/07:30pm 12.1 5.1 5.9 66 2.9 WSW 32 50 17 27 1006.8 1006.8 0.2
13/07:25pm 12.3 5.7 5.9 65 3.0 WSW 30 50 16 27 1006.7 1006.7 0.2
13/07:00pm 12.7 5.0 5.4 61 3.4 W 35 52 19 28 1006.2 1006.2 0.2
13/06:30pm 13.5 5.3 6.4 62 3.4 WSW 39 65 21 35 1006.0 1006.0 0.2
13/06:04pm 13.6 4.8 5.7 59 3.7 W 41 59 22 32 1005.5 1005.5 0.2
13/06:00pm 14.0 5.4 6.4 60 3.7 W 41 54 22 29 1005.7 1005.7 0.2
13/05:30pm 14.7 5.7 6.3 57 4.0 WSW 43 65 23 35 1005.6 1005.6 0.0
13/05:00pm 14.9 5.5 7.0 59 3.9 W 46 67 25 36 1005.1 1005.1 0.0
13/04:31pm 14.7 5.6 6.8 59 3.8 WSW 44 63 24 34 1004.8 1004.8 0.0
13/04:30pm 14.9 5.9 7.2 60 3.8 WSW 44 57 24 31 1004.7 1004.7 0.0
13/04:00pm 14.3 5.3 7.4 63 3.4 WSW 44 65 24 35 1005.0 1005.0 0.0
13/03:30pm 15.2 5.4 8.7 65 3.3 WSW 50 72 27 39 1004.6 1004.6 0.0
13/03:26pm 14.8 4.9 8.1 64 3.4 WSW 50 72 27 39 1004.5 1004.5 0.0
13/03:24pm 14.6 4.9 7.6 63 3.5 WSW 48 72 26 39 1004.6 1004.6 0.0
13/03:00pm 15.0 7.3 8.5 65 3.3 WSW 39 59 21 32 1004.6 1004.6 0.0
13/02:30pm 14.8 6.6 9.8 72 2.6 WSW 43 63 23 34 1004.4 1004.4 0.0
13/02:00pm 16.4 7.7 9.8 65 3.5 WSW 46 67 25 36 1004.0 1004.0 0.0
13/01:39pm 16.3 7.3 10.4 68 3.1 WSW 48 67 26 36 1003.7 1003.7 0.0
13/01:30pm 15.8 5.1 9.7 67 3.2 W 56 70 30 38 1003.4 1003.4 0.0
13/01:00pm 16.0 8.3 11.6 75 2.4 W 43 65 23 35 1003.6 1003.6 0.0
13/12:38pm 14.9 7.3 10.5 75 2.3 W 41 59 22 32 1003.7 1003.7 0.0
13/12:30pm 14.4 6.6 11.0 80 1.8 W 43 57 23 31 1003.7 1003.7 0.0
13/12:13pm 14.0 7.0 9.8 76 2.2 W 37 61 20 33 1003.9 1003.9 0.0
13/12:00pm 14.1 6.7 9.9 76 2.2 W 39 50 21 27 1003.9 1003.9 0.0
13/11:40am 13.5 5.7 9.6 77 2.0 W 41 65 22 35 1004.1 1004.1 0.0
13/11:30am 13.3 5.2 9.9 80 1.7 W 43 57 23 31 1004.2 1004.2 0.0
13/11:13am 12.8 6.0 9.1 78 1.9 WNW 35 56 19 30 1004.4 1004.4 0.0
13/11:00am 13.3 6.2 9.5 78 1.9 WNW 37 54 20 29 1004.4 1004.4 0.0
13/10:35am 12.0 4.6 8.5 79 1.7 W 37 56 20 30 1004.9 1004.9 0.0
13/10:30am 11.8 4.3 8.1 78 1.8 W 37 52 20 28 1004.8 1004.8 0.0
13/10:20am 11.8 4.6 7.7 76 2.0 WNW 35 54 19 29 1005.0 1005.0 0.0
13/10:00am 11.3 4.5 7.8 79 1.7 WNW 33 46 18 25 1005.0 1005.0 0.0
13/09:32am 11.2 4.2 6.7 74 2.1 WNW 33 52 18 28 1005.4 1005.4 0.0
13/09:30am 11.3 4.5 6.8 74 2.1 WNW 32 46 17 25 1005.5 1005.5 0.0
13/09:03am 11.0 3.5 6.2 72 2.2 W 35 54 19 29 1005.6 1005.6 0.0
13/09:00am 11.1 3.6 6.5 73 2.2 W 35 52 19 28 1005.8 1005.8 1.8
13/08:30am 11.6 3.4 6.7 72 2.3 W 39 65 21 35 1005.9 1005.9 1.8
13/08:25am 10.7 2.7 5.7 71 2.3 W 37 65 20 35 1005.9 1005.9 1.8
13/08:00am 10.3 3.8 6.5 77 1.8 W 30 41 16 22 1006.0 1006.0 1.8
13/07:30am 9.3 2.2 5.5 77 1.7 W 32 46 17 25 1006.1 1006.1 1.8
13/07:00am 8.4 2.7 4.8 78 1.6 W 24 35 13 19 1006.2 1006.2 1.8
13/06:30am 8.2 2.9 5.0 80 1.4 WNW 22 32 12 17 1006.4 1006.4 1.8
13/06:00am 7.6 2.7 4.9 83 1.2 WNW 20 30 11 16 1006.3 1006.3 1.8
13/05:30am 7.2 2.4 4.5 83 1.2 WNW 19 26 10 14 1006.2 1006.2 1.8
13/05:00am 6.9 1.9 4.4 84 1.1 W 20 26 11 14 1006.1 1006.1 1.8
13/04:30am 6.4 0.9 3.9 84 1.1 W 22 30 12 16 1006.0 1006.0 1.8
13/04:00am 6.2 0.3 4.0 86 0.9 W 24 37 13 20 1006.3 1006.3 1.8
13/03:30am 5.9 0.0 3.7 86 0.9 W 24 30 13 16 1006.3 1006.3 1.8
13/03:00am 6.0 -0.3 3.8 86 0.9 W 26 33 14 18 1006.3 1006.3 1.8
13/02:30am 5.6 0.0 3.6 87 0.8 W 22 30 12 16 1006.2 1006.2 1.8
13/02:00am 6.1 0.2 3.9 86 0.9 W 24 35 13 19 1006.4 1006.4 1.8
13/01:30am 6.1 0.5 3.6 84 1.1 W 22 30 12 16 1006.6 1006.6 1.6
13/01:00am 5.9 1.3 3.7 86 0.9 WNW 17 28 9 15 1006.9 1006.9 1.6
13/12:30am 5.2 1.8 4.0 92 0.5 WNW 11 17 6 9 1006.9 1006.9 1.6
13/12:00am 5.3 0.7 3.6 89 0.7 WNW 17 20 9 11 1007.0 1007.0 1.6
 
Date/Time
EDT
Temp
°C
App
Temp
°C
Dew
Point
°C
Rel
Hum
%
Delta-T
°C
Wind Press
QNH
hPa
Press
MSL
hPa
Rain since
9am
mm
Dir  Spd
km/h
Gust
km/h
Spd
kts
Gust
kts
12/11:30pm 5.7 1.1 3.9 88 0.8 WNW 17 22 9 12 1006.8 1006.8 1.6
12/11:00pm 5.5 -0.1 3.5 87 0.8 W 22 32 12 17 1006.5 1006.5 1.4
12/10:30pm 6.3 -1.1 3.8 84 1.1 WSW 32 46 17 25 1006.7 1006.7 1.4
12/10:00pm 6.4 -0.7 3.6 82 1.2 W 30 43 16 23 1005.9 1005.9 1.4
12/09:30pm 6.3 1.2 4.3 87 0.9 W 20 26 11 14 1005.6 1005.6 1.4
12/09:00pm 6.4 1.4 4.4 87 0.9 W 20 28 11 15 1005.3 1005.3 1.4
12/08:30pm 7.0 1.2 4.5 84 1.1 W 24 33 13 18 1005.0 1005.0 1.0
12/08:00pm 7.1 1.6 4.1 81 1.3 W 22 30 12 16 1004.5 1004.5 1.0
12/07:42pm 7.7 0.2 3.7 76 1.7 W 32 50 17 27 1004.4 1004.4 1.0
12/07:33pm 8.1 1.5 4.1 76 1.7 WSW 28 52 15 28 1004.1 1004.1 1.0
12/07:30pm 8.6 3.1 4.2 74 1.9 WSW 22 33 12 18 1004.3 1004.3 0.8
12/07:00pm 9.1 1.4 3.3 67 2.5 WSW 33 52 18 28 1003.6 1003.6 0.8
12/06:37pm 9.9 2.3 2.7 61 3.1 W 32 54 17 29 1003.0 1003.0 0.8
12/06:30pm 10.3 3.2 3.3 62 3.0 WSW 30 41 16 22 1002.8 1002.8 0.8
12/06:13pm 10.2 2.7 3.5 63 2.9 WSW 32 50 17 27 1002.9 1002.9 0.8
12/06:00pm 10.9 3.6 4.6 65 2.9 WSW 32 44 17 24 1002.7 1002.7 0.8
12/05:30pm 11.7 3.9 4.9 63 3.1 W 35 54 19 29 1002.4 1002.4 0.8
12/05:03pm 11.1 3.5 6.0 71 2.4 W 35 54 19 29 1002.2 1002.2 0.8
12/05:00pm 11.1 3.6 6.5 73 2.2 WSW 35 52 19 28 1002.2 1002.2 0.8
12/04:38pm 9.6 2.1 6.3 80 1.5 W 35 54 19 29 1002.4 1002.4 0.8
12/04:34pm 8.7 0.7 5.8 82 1.3 W 37 54 20 29 1002.5 1002.5 0.8
12/04:30pm 8.8 0.9 6.1 83 1.2 WSW 37 54 20 29 1002.5 1002.5 0.8
12/04:16pm 8.3 -1.2 4.9 79 1.5 WSW 44 74 24 40 1002.6 1002.6 0.8
12/04:11pm 10.2 2.2 3.7 64 2.9 W 35 74 19 40 1002.1 1002.1 0.4
12/04:00pm 12.7 5.4 5.6 62 3.3 W 33 41 18 22 1001.7 1001.7 0.4
12/03:30pm 11.6 3.6 5.9 68 2.7 W 37 52 20 28 1001.9 1001.9 0.4
12/03:20pm 11.6 5.4 6.1 69 2.6 W 28 54 15 29 1002.0 1002.0 0.4
12/03:14pm 11.3 5.7 8.7 84 1.3 W 28 37 15 20 1002.2 1002.2 0.4
12/03:00pm 8.7 -0.3 6.5 86 1.0 WNW 43 76 23 41 1002.3 1002.3 0.4
12/02:56pm 8.4 -0.9 5.7 83 1.2 WNW 44 76 24 41 1002.4 1002.4 0.4
12/02:55pm 8.6 -0.7 5.9 83 1.2 W 44 76 24 41 1002.4 1002.4 0.2
12/02:53pm 8.9 -0.4 5.1 77 1.7 W 43 76 23 41 1002.4 1002.4 0.2
12/02:51pm 10.0 1.4 4.8 70 2.3 W 39 76 21 41 1002.3 1002.3 0.2
12/02:30pm 13.0 5.0 5.7 61 3.4 W 37 56 20 30 1001.9 1001.9 0.0
12/02:24pm 11.8 3.6 6.5 70 2.5 WSW 39 61 21 33 1001.9 1001.9 0.0
12/02:13pm 12.2 3.0 3.7 56 3.8 WSW 41 65 22 35 1001.7 1001.7 0.0
12/02:00pm 11.9 2.3 3.2 55 3.9 WSW 43 57 23 31 1001.8 1001.8 0.0
12/01:30pm 14.3 5.8 5.1 54 4.3 W 39 57 21 31 1001.7 1001.7 0.0
12/01:00pm 10.6 0.3 4.9 68 2.6 WSW 48 70 26 38 1002.0 1002.0 0.0
12/12:56pm 11.7 1.7 4.4 61 3.3 W 46 70 25 38 1001.8 1001.8 0.0
12/12:55pm 12.2 2.5 3.9 57 3.7 W 44 70 24 38 1001.7 1001.7 0.0
12/12:38pm 13.0 6.0 5.9 62 3.3 W 32 50 17 27 1001.7 1001.7 0.0
12/12:30pm 12.1 5.1 7.0 71 2.4 W 33 44 18 24 1001.9 1001.9 0.0
12/12:05pm 13.1 6.0 8.0 71 2.5 W 35 54 19 29 1001.8 1001.8 0.0
12/12:00pm 11.5 3.1 5.8 68 2.7 W 39 54 21 29 1001.7 1001.7 0.0
12/11:55am 13.2 6.0 5.9 61 3.4 WNW 33 54 18 29 1001.4 1001.4 0.0
12/11:30am 12.3 4.3 4.0 57 3.7 W 35 52 19 28 1001.4 1001.4 0.0
12/11:08am 12.6 4.2 3.6 54 4.0 WSW 37 63 20 34 1001.5 1001.5 0.0
12/11:00am 14.5 6.8 3.6 48 5.0 W 33 48 18 26 1001.2 1001.2 0.0

Other formats

Comma delimited format used in spreadsheet applications
http://www.bom.gov.au/fwo/IDT60801/IDT60801.95957.axf

JavaScript Object Notation format (JSON) in row-major order
http://www.bom.gov.au/fwo/IDT60801/IDT60801.95957.json

Data quality

Most of these data are generated automatically and are frequently updated. Quality checks on data are not normally performed. It is possible for incorrect values to appear. Refer to information at About Latest Weather Observations and please check the disclaimer before using these data.